createdAt,value
2022-10-16T00:00:34.713Z,17.40
2022-10-16T00:01:34.697Z,12.30
2022-10-16T00:02:34.794Z,13.30
2022-10-16T00:03:34.681Z,13.80
2022-10-16T00:04:34.674Z,15.60
2022-10-16T00:05:34.671Z,11.70
2022-10-16T00:06:34.647Z,11.90
2022-10-16T00:07:34.641Z,14.00
2022-10-16T00:08:34.627Z,12.90
2022-10-16T00:09:34.613Z,13.60
2022-10-16T00:10:34.602Z,12.30
2022-10-16T00:11:34.622Z,10.40
2022-10-16T00:12:34.582Z,14.20
2022-10-16T00:13:34.568Z,11.40
2022-10-16T00:14:34.566Z,11.90
2022-10-16T00:15:34.695Z,9.80
2022-10-16T00:16:34.541Z,10.50
2022-10-16T00:17:34.534Z,12.80
2022-10-16T00:18:34.517Z,12.20
2022-10-16T00:19:34.501Z,13.40
2022-10-16T00:20:34.498Z,9.80
2022-10-16T00:21:34.477Z,9.00
2022-10-16T00:22:34.471Z,10.60
2022-10-16T00:23:34.474Z,11.20
2022-10-16T00:24:34.449Z,11.20
2022-10-16T00:25:34.441Z,12.40
2022-10-16T00:26:34.431Z,11.50
2022-10-16T00:27:34.422Z,9.90
2022-10-16T00:28:34.505Z,11.50
2022-10-16T00:29:34.402Z,13.30
2022-10-16T00:30:34.383Z,12.50
2022-10-16T00:31:34.397Z,8.60
2022-10-16T00:32:34.363Z,9.50
2022-10-16T00:33:34.347Z,12.50
2022-10-16T00:34:34.347Z,13.70
2022-10-16T00:35:34.329Z,8.10
2022-10-16T00:36:34.314Z,14.60
2022-10-16T00:37:34.301Z,9.10
2022-10-16T00:38:34.297Z,8.50
2022-10-16T00:39:34.281Z,10.40
2022-10-16T00:40:34.274Z,13.10
2022-10-16T00:41:34.261Z,8.50
2022-10-16T00:42:34.250Z,11.90
2022-10-16T00:43:34.238Z,9.30
2022-10-16T00:44:34.225Z,9.90
2022-10-16T00:45:34.216Z,10.30
2022-10-16T00:46:34.205Z,12.30
2022-10-16T00:47:34.222Z,11.30
2022-10-16T00:48:34.180Z,9.70
2022-10-16T00:49:34.171Z,11.90
2022-10-16T00:50:34.157Z,9.00
2022-10-16T00:51:34.150Z,10.50
2022-10-16T00:52:34.145Z,8.70
2022-10-16T00:53:34.127Z,12.80
2022-10-16T00:54:34.120Z,9.40
2022-10-16T00:55:37.581Z,10.30
2022-10-16T00:56:35.124Z,10.70
2022-10-16T00:57:34.084Z,10.90
2022-10-16T00:58:34.072Z,7.40
2022-10-16T00:59:34.062Z,9.30
2022-10-16T01:00:34.050Z,9.60
2022-10-16T01:01:34.123Z,16.40
2022-10-16T01:02:34.028Z,9.80
2022-10-16T01:03:34.044Z,12.10
2022-10-16T01:04:34.012Z,9.10
2022-10-16T01:05:33.999Z,10.40
2022-10-16T01:06:33.985Z,9.90
2022-10-16T01:07:33.978Z,11.00
2022-10-16T01:08:33.965Z,11.50
2022-10-16T01:09:33.954Z,11.60
2022-10-16T01:10:33.939Z,10.60
2022-10-16T01:11:33.929Z,8.10
2022-10-16T01:12:37.717Z,11.50
2022-10-16T01:13:33.906Z,11.20
2022-10-16T01:14:33.895Z,10.50
2022-10-16T01:15:33.964Z,12.70
2022-10-16T01:16:33.877Z,8.90
2022-10-16T01:17:33.865Z,9.70
2022-10-16T01:18:33.853Z,10.20
2022-10-16T01:19:33.865Z,8.40
2022-10-16T01:20:33.830Z,9.80
2022-10-16T01:21:33.824Z,10.80
2022-10-16T01:22:33.814Z,11.60
2022-10-16T01:23:33.799Z,8.90
2022-10-16T01:24:33.907Z,10.30
2022-10-16T01:25:33.781Z,13.10
2022-10-16T01:26:33.767Z,15.00
2022-10-16T01:27:33.756Z,10.30
2022-10-16T01:28:33.827Z,10.30
2022-10-16T01:29:33.734Z,12.40
2022-10-16T01:30:33.725Z,11.30
2022-10-16T01:31:33.718Z,12.00
2022-10-16T01:32:33.706Z,9.90
2022-10-16T01:33:33.687Z,13.70
2022-10-16T01:34:33.681Z,10.30
2022-10-16T01:35:33.691Z,12.10
2022-10-16T01:36:33.656Z,9.80
2022-10-16T01:37:33.641Z,10.00
2022-10-16T01:38:33.638Z,9.10
2022-10-16T01:39:33.620Z,10.00
2022-10-16T01:40:33.612Z,9.20
2022-10-16T01:41:33.611Z,9.60
2022-10-16T01:42:33.591Z,9.20
2022-10-16T01:43:33.585Z,10.60
2022-10-16T01:44:33.575Z,12.70
2022-10-16T01:45:33.557Z,12.40
2022-10-16T01:46:33.547Z,14.50
2022-10-16T01:47:33.547Z,9.40
2022-10-16T01:48:33.519Z,10.10
2022-10-16T01:49:33.513Z,13.50
2022-10-16T01:50:33.500Z,11.10
2022-10-16T01:51:33.512Z,13.10
2022-10-16T01:52:33.493Z,13.10
2022-10-16T01:53:33.469Z,11.30
2022-10-16T01:54:33.454Z,13.10
2022-10-16T01:55:33.444Z,13.40
2022-10-16T01:56:33.436Z,17.50
2022-10-16T01:57:33.421Z,12.70
2022-10-16T01:58:33.410Z,12.20
2022-10-16T01:59:33.402Z,14.60
2022-10-16T02:00:33.390Z,15.50
2022-10-16T02:01:33.382Z,15.60
2022-10-16T02:02:33.375Z,15.00
2022-10-16T02:03:33.369Z,22.10
2022-10-16T02:04:33.349Z,16.70
2022-10-16T02:05:33.330Z,16.50
2022-10-16T02:06:33.321Z,15.30
2022-10-16T02:07:33.332Z,13.50
2022-10-16T02:08:33.300Z,14.90
2022-10-16T02:09:33.293Z,12.00
2022-10-16T02:10:33.290Z,12.80
2022-10-16T02:11:33.273Z,17.50
2022-10-16T02:12:33.262Z,15.50
2022-10-16T02:13:33.247Z,17.40
2022-10-16T02:14:33.229Z,15.50
2022-10-16T02:15:33.221Z,14.80
2022-10-16T02:16:33.206Z,14.70
2022-10-16T02:17:33.203Z,14.40
2022-10-16T02:18:33.184Z,17.00
2022-10-16T02:19:33.251Z,12.90
2022-10-16T02:20:33.164Z,12.10
2022-10-16T02:21:33.153Z,14.00
2022-10-16T02:22:33.140Z,12.80
2022-10-16T02:23:33.189Z,13.30
2022-10-16T02:24:33.224Z,14.60
2022-10-16T02:25:33.108Z,13.70
2022-10-16T02:26:33.095Z,11.70
2022-10-16T02:27:33.086Z,11.30
2022-10-16T02:28:33.170Z,14.40
2022-10-16T02:29:33.064Z,11.00
2022-10-16T02:30:33.051Z,14.60
2022-10-16T02:31:33.042Z,13.40
2022-10-16T02:32:33.101Z,12.00
2022-10-16T02:33:33.026Z,11.20
2022-10-16T02:34:33.007Z,9.70
2022-10-16T02:35:32.999Z,12.90
2022-10-16T02:36:32.984Z,11.00
2022-10-16T02:37:32.974Z,13.70
2022-10-16T02:38:32.961Z,11.30
2022-10-16T02:39:32.976Z,13.70
2022-10-16T02:40:32.948Z,9.50
2022-10-16T02:41:32.932Z,8.00
2022-10-16T02:42:32.923Z,14.10
2022-10-16T02:43:32.909Z,9.50
2022-10-16T02:44:32.897Z,13.70
2022-10-16T02:45:32.896Z,10.90
2022-10-16T02:46:32.875Z,14.90
2022-10-16T02:47:32.866Z,10.50
2022-10-16T02:48:32.852Z,12.90
2022-10-16T02:49:32.847Z,9.50
2022-10-16T02:50:32.829Z,9.40
2022-10-16T02:51:32.850Z,10.70
2022-10-16T02:52:32.810Z,10.40
2022-10-16T02:53:32.844Z,11.40
2022-10-16T02:54:32.841Z,11.70
2022-10-16T02:55:32.800Z,13.90
2022-10-16T02:56:32.764Z,11.30
2022-10-16T02:57:32.756Z,12.00
2022-10-16T02:58:32.741Z,10.80
2022-10-16T02:59:32.734Z,11.50
2022-10-16T03:00:32.754Z,10.60
2022-10-16T03:01:32.761Z,11.80
2022-10-16T03:02:32.698Z,12.00
2022-10-16T03:03:32.690Z,10.30
2022-10-16T03:04:32.679Z,10.60
2022-10-16T03:05:32.664Z,12.90
2022-10-16T03:06:32.655Z,10.60
2022-10-16T03:07:32.643Z,12.10
2022-10-16T03:08:32.676Z,15.70
2022-10-16T03:09:32.625Z,11.20
2022-10-16T03:10:32.611Z,15.30
2022-10-16T03:11:32.621Z,12.10
2022-10-16T03:12:32.586Z,12.50
2022-10-16T03:13:32.577Z,11.90
2022-10-16T03:14:32.568Z,8.80
2022-10-16T03:15:32.556Z,13.80
2022-10-16T03:16:32.542Z,11.20
2022-10-16T03:17:32.536Z,12.00
2022-10-16T03:18:32.521Z,9.90
2022-10-16T03:19:32.512Z,10.70
2022-10-16T03:20:32.497Z,10.80
2022-10-16T03:21:32.493Z,11.00
2022-10-16T03:22:32.475Z,10.00
2022-10-16T03:23:32.470Z,13.70
2022-10-16T03:24:32.455Z,15.00
2022-10-16T03:25:32.445Z,13.30
2022-10-16T03:26:32.433Z,11.00
2022-10-16T03:27:32.445Z,11.60
2022-10-16T03:28:32.446Z,11.50
2022-10-16T03:29:32.401Z,10.80
2022-10-16T03:30:32.387Z,15.00
2022-10-16T03:31:32.395Z,12.90
2022-10-16T03:32:32.427Z,12.10
2022-10-16T03:33:32.357Z,12.90
2022-10-16T03:34:32.343Z,9.90
2022-10-16T03:35:32.335Z,10.50
2022-10-16T03:36:32.327Z,15.30
2022-10-16T03:37:32.314Z,11.90
2022-10-16T03:38:32.309Z,10.30
2022-10-16T03:39:32.288Z,11.00
2022-10-16T03:40:32.274Z,11.10
2022-10-16T03:41:32.265Z,12.40
2022-10-16T03:42:32.252Z,12.70
2022-10-16T03:43:32.265Z,11.80
2022-10-16T03:44:32.234Z,13.40
2022-10-16T03:45:32.220Z,11.70
2022-10-16T03:46:32.209Z,16.60
2022-10-16T03:47:32.200Z,11.20
2022-10-16T03:48:32.185Z,12.40
2022-10-16T03:49:32.180Z,13.90
2022-10-16T03:50:32.163Z,14.00
2022-10-16T03:51:32.153Z,12.00
2022-10-16T03:52:32.142Z,15.80
2022-10-16T03:53:32.132Z,14.00
2022-10-16T03:54:32.119Z,12.00
2022-10-16T03:55:32.109Z,13.60
2022-10-16T03:56:32.099Z,14.30
2022-10-16T03:57:32.089Z,17.80
2022-10-16T03:58:32.074Z,15.90
2022-10-16T03:59:32.091Z,13.70
2022-10-16T04:00:32.054Z,16.60
2022-10-16T04:01:32.046Z,12.60
2022-10-16T04:02:32.031Z,12.50
2022-10-16T04:03:32.022Z,16.90
2022-10-16T04:04:32.021Z,13.80
2022-10-16T04:05:31.999Z,16.40
2022-10-16T04:06:31.988Z,13.80
2022-10-16T04:07:31.982Z,16.30
2022-10-16T04:08:31.969Z,17.20
2022-10-16T04:09:31.957Z,16.40
2022-10-16T04:10:31.941Z,17.50
2022-10-16T04:11:31.933Z,19.60
2022-10-16T04:12:31.920Z,11.70
2022-10-16T04:13:31.909Z,15.30
2022-10-16T04:14:31.897Z,17.50
2022-10-16T04:15:31.911Z,17.50
2022-10-16T04:16:31.876Z,15.50
2022-10-16T04:17:31.865Z,18.80
2022-10-16T04:18:31.855Z,14.70
2022-10-16T04:19:31.843Z,19.80
2022-10-16T04:20:31.832Z,21.00
2022-10-16T04:21:31.822Z,18.30
2022-10-16T04:22:31.810Z,16.70
2022-10-16T04:23:31.799Z,17.90
2022-10-16T04:24:31.785Z,17.60
2022-10-16T04:25:31.778Z,18.50
2022-10-16T04:26:31.766Z,18.30
2022-10-16T04:27:31.754Z,18.30
2022-10-16T04:28:31.768Z,18.30
2022-10-16T04:29:31.736Z,19.90
2022-10-16T04:30:31.733Z,18.50
2022-10-16T04:31:31.738Z,21.00
2022-10-16T04:32:31.700Z,20.70
2022-10-16T04:33:31.693Z,19.90
2022-10-16T04:34:31.676Z,19.30
2022-10-16T04:35:31.667Z,24.40
2022-10-16T04:36:31.655Z,21.50
2022-10-16T04:37:31.647Z,23.20
2022-10-16T04:38:31.635Z,21.20
2022-10-16T04:39:31.623Z,21.30
2022-10-16T04:40:31.610Z,24.10
2022-10-16T04:41:31.601Z,22.30
2022-10-16T04:42:31.588Z,22.70
2022-10-16T04:43:31.584Z,22.60
2022-10-16T04:44:31.568Z,18.00
2022-10-16T04:45:31.557Z,23.40
2022-10-16T04:46:31.544Z,19.50
2022-10-16T04:47:31.560Z,21.60
2022-10-16T04:48:31.524Z,20.90
2022-10-16T04:49:31.512Z,21.70
2022-10-16T04:50:31.504Z,20.10
2022-10-16T04:51:31.490Z,19.20
2022-10-16T04:52:31.513Z,25.20
2022-10-16T04:53:31.469Z,26.50
2022-10-16T04:54:31.461Z,23.60
2022-10-16T04:55:31.446Z,18.70
2022-10-16T04:56:31.433Z,20.60
2022-10-16T04:57:31.424Z,21.10
2022-10-16T04:58:31.412Z,21.80
2022-10-16T04:59:31.404Z,20.00
2022-10-16T05:00:31.390Z,18.20
2022-10-16T05:01:31.381Z,22.30
2022-10-16T05:02:31.496Z,22.10
2022-10-16T05:04:31.345Z,21.40
2022-10-16T05:05:31.338Z,23.20
2022-10-16T05:06:31.324Z,23.40
2022-10-16T05:07:31.320Z,26.30
2022-10-16T05:08:31.327Z,23.80
2022-10-16T05:09:31.359Z,24.40
2022-10-16T05:10:31.418Z,22.80
2022-10-16T05:11:31.367Z,23.90
2022-10-16T05:12:31.360Z,26.70
2022-10-16T05:13:31.384Z,22.60
2022-10-16T05:14:31.397Z,27.20
2022-10-16T05:15:31.255Z,22.30
2022-10-16T05:16:31.217Z,18.60
2022-10-16T05:17:31.202Z,27.20
2022-10-16T05:18:31.193Z,27.00
2022-10-16T05:19:31.202Z,25.60
2022-10-16T05:20:31.173Z,25.00
2022-10-16T05:21:31.163Z,24.10
2022-10-16T05:22:31.150Z,27.20
2022-10-16T05:23:31.139Z,25.50
2022-10-16T05:24:31.129Z,28.40
2022-10-16T05:25:31.122Z,24.50
2022-10-16T05:26:31.108Z,22.90
2022-10-16T05:27:31.092Z,21.90
2022-10-16T05:28:31.199Z,24.20
2022-10-16T05:29:31.071Z,25.00
2022-10-16T05:30:31.061Z,19.90
2022-10-16T05:31:31.049Z,25.90
2022-10-16T05:32:31.041Z,25.90
2022-10-16T05:33:31.181Z,22.60
2022-10-16T05:34:31.016Z,26.40
2022-10-16T05:35:31.034Z,26.20
2022-10-16T05:36:30.994Z,25.40
2022-10-16T05:37:30.982Z,31.10
2022-10-16T05:38:30.976Z,26.00
2022-10-16T05:39:30.960Z,27.80
2022-10-16T05:40:30.949Z,23.40
2022-10-16T05:41:30.937Z,27.00
2022-10-16T05:42:30.929Z,29.90
2022-10-16T05:43:30.916Z,25.30
2022-10-16T05:44:30.943Z,25.90
2022-10-16T05:45:30.892Z,27.70
2022-10-16T05:46:30.882Z,25.80
2022-10-16T05:47:30.871Z,28.40
2022-10-16T05:48:30.861Z,27.00
2022-10-16T05:49:30.854Z,27.60
2022-10-16T05:50:30.839Z,27.10
2022-10-16T05:51:30.854Z,31.60
2022-10-16T05:52:30.816Z,28.10
2022-10-16T05:53:30.864Z,30.90
2022-10-16T05:54:30.798Z,26.30
2022-10-16T05:55:30.785Z,27.00
2022-10-16T05:56:30.774Z,34.70
2022-10-16T05:57:30.760Z,30.00
2022-10-16T05:58:30.751Z,31.10
2022-10-16T05:59:30.738Z,31.70
2022-10-16T06:00:30.731Z,32.70
2022-10-16T06:01:30.732Z,33.90
2022-10-16T06:02:30.805Z,34.10
2022-10-16T06:03:30.696Z,32.90
2022-10-16T06:04:30.686Z,31.60
2022-10-16T06:05:30.674Z,32.30
2022-10-16T06:06:30.672Z,28.10
2022-10-16T06:07:30.673Z,31.00
2022-10-16T06:08:30.642Z,31.90
2022-10-16T06:09:30.628Z,33.00
2022-10-16T06:10:30.622Z,33.20
2022-10-16T06:11:30.608Z,33.40
2022-10-16T06:12:30.597Z,31.50
2022-10-16T06:13:30.587Z,29.00
2022-10-16T06:14:30.580Z,31.30
2022-10-16T06:15:30.564Z,34.70
2022-10-16T06:16:30.553Z,34.40
2022-10-16T06:17:30.542Z,31.00
2022-10-16T06:18:30.533Z,35.20
2022-10-16T06:19:30.521Z,26.10
2022-10-16T06:20:30.515Z,28.50
2022-10-16T06:21:30.498Z,29.80
2022-10-16T06:22:30.489Z,25.50
2022-10-16T06:23:30.496Z,31.00
2022-10-16T06:24:30.470Z,30.60
2022-10-16T06:25:30.452Z,28.80
2022-10-16T06:26:30.443Z,31.80
2022-10-16T06:27:30.439Z,34.20
2022-10-16T06:28:30.451Z,31.60
2022-10-16T06:29:30.424Z,28.30
2022-10-16T06:30:30.399Z,26.30
2022-10-16T06:31:30.389Z,26.90
2022-10-16T06:32:30.380Z,29.10
2022-10-16T06:33:30.367Z,26.80
2022-10-16T06:34:30.354Z,28.90
2022-10-16T06:35:30.351Z,27.30
2022-10-16T06:36:30.333Z,29.90
2022-10-16T06:37:30.325Z,26.40
2022-10-16T06:38:30.310Z,29.20
2022-10-16T06:39:30.320Z,24.80
2022-10-16T06:40:30.288Z,25.40
2022-10-16T06:41:30.277Z,26.90
2022-10-16T06:42:30.267Z,33.00
2022-10-16T06:43:30.253Z,24.60
2022-10-16T06:44:30.243Z,27.50
2022-10-16T06:45:30.231Z,27.50
2022-10-16T06:46:30.224Z,25.70
2022-10-16T06:47:30.210Z,27.30
2022-10-16T06:48:30.200Z,24.10
2022-10-16T06:49:30.187Z,26.20
2022-10-16T06:50:30.179Z,25.80
2022-10-16T06:51:30.164Z,28.20
2022-10-16T06:52:30.157Z,23.60
2022-10-16T06:53:31.400Z,25.80
2022-10-16T06:54:30.132Z,24.30
2022-10-16T06:55:30.145Z,23.60
2022-10-16T06:56:30.124Z,22.80
2022-10-16T06:57:30.099Z,22.30
2022-10-16T06:58:30.107Z,21.80
2022-10-16T06:59:30.079Z,21.80
2022-10-16T07:00:30.065Z,23.60
2022-10-16T07:01:30.054Z,27.50
2022-10-16T07:02:30.348Z,20.70
2022-10-16T07:03:30.032Z,24.00
2022-10-16T07:04:30.329Z,25.10
2022-10-16T07:05:30.011Z,25.00
2022-10-16T07:06:29.999Z,22.40
2022-10-16T07:07:29.992Z,22.40
2022-10-16T07:08:29.975Z,22.90
2022-10-16T07:10:29.958Z,19.80
2022-10-16T07:11:29.973Z,19.70
2022-10-16T07:12:29.935Z,18.60
2022-10-16T07:13:29.942Z,21.50
2022-10-16T07:14:29.912Z,20.60
2022-10-16T07:15:29.913Z,18.60
2022-10-16T07:16:29.890Z,21.20
2022-10-16T07:17:29.886Z,24.50
2022-10-16T07:19:33.426Z,16.40
2022-10-16T07:20:29.847Z,22.30
2022-10-16T07:21:30.060Z,19.00
2022-10-16T07:22:29.824Z,18.40
2022-10-16T07:23:29.811Z,20.00
2022-10-16T07:24:29.802Z,17.00
2022-10-16T07:25:29.789Z,20.00
2022-10-16T07:26:29.779Z,16.50
2022-10-16T07:27:29.821Z,16.00
2022-10-16T07:28:29.812Z,17.50
2022-10-16T07:29:29.745Z,16.60
2022-10-16T07:30:29.736Z,19.10
2022-10-16T07:31:29.723Z,19.30
2022-10-16T07:32:29.714Z,18.70
2022-10-16T07:33:29.703Z,18.20
2022-10-16T07:34:29.693Z,16.00
2022-10-16T07:35:29.679Z,18.40
2022-10-16T07:36:29.719Z,15.60
2022-10-16T07:37:29.863Z,19.10
2022-10-16T07:38:29.651Z,15.90
2022-10-16T07:39:29.634Z,18.40
2022-10-16T07:40:29.627Z,18.70
2022-10-16T07:41:29.610Z,14.40
2022-10-16T07:42:29.602Z,16.70
2022-10-16T07:43:29.616Z,15.70
2022-10-16T07:44:29.583Z,16.40
2022-10-16T07:45:29.571Z,14.30
2022-10-16T07:46:29.565Z,14.70
2022-10-16T07:47:29.817Z,17.40
2022-10-16T07:48:29.560Z,15.00
2022-10-16T07:49:29.530Z,13.10
2022-10-16T07:50:29.517Z,12.40
2022-10-16T07:51:29.503Z,13.80
2022-10-16T07:52:29.494Z,13.50
2022-10-16T07:53:29.483Z,14.80
2022-10-16T07:54:29.471Z,14.50
2022-10-16T07:55:29.458Z,13.30
2022-10-16T07:56:29.451Z,11.30
2022-10-16T07:57:29.544Z,13.40
2022-10-16T07:58:29.478Z,14.00
2022-10-16T07:59:29.439Z,13.30
2022-10-16T08:00:29.418Z,11.20
2022-10-16T08:01:29.484Z,11.40
2022-10-16T08:02:29.389Z,11.00
2022-10-16T08:03:29.373Z,12.60
2022-10-16T08:04:29.366Z,12.70
2022-10-16T08:05:29.348Z,12.50
2022-10-16T08:06:29.337Z,14.20
2022-10-16T08:07:29.353Z,14.60
2022-10-16T08:08:29.566Z,11.40
2022-10-16T08:09:29.303Z,10.70
2022-10-16T08:10:29.292Z,10.50
2022-10-16T08:11:29.282Z,12.00
2022-10-16T08:12:29.271Z,12.50
2022-10-16T08:13:29.266Z,12.20
2022-10-16T08:14:29.253Z,10.30
2022-10-16T08:15:29.261Z,9.60
2022-10-16T08:16:29.228Z,11.00
2022-10-16T08:17:29.500Z,11.90
2022-10-16T08:18:29.204Z,10.90
2022-10-16T08:19:29.192Z,12.20
2022-10-16T08:20:29.192Z,12.30
2022-10-16T08:21:29.171Z,12.80
2022-10-16T08:22:29.170Z,10.90
2022-10-16T08:23:29.148Z,9.40
2022-10-16T08:24:29.137Z,10.20
2022-10-16T08:25:29.124Z,9.60
2022-10-16T08:26:29.116Z,9.20
2022-10-16T08:27:29.103Z,10.20
2022-10-16T08:28:29.124Z,11.00
2022-10-16T08:29:29.082Z,10.30
2022-10-16T08:30:29.075Z,10.10
2022-10-16T08:31:29.094Z,9.30
2022-10-16T08:32:29.318Z,12.40
2022-10-16T08:33:29.037Z,10.10
2022-10-16T08:34:29.390Z,9.10
2022-10-16T08:35:29.286Z,10.50
2022-10-16T08:36:29.023Z,11.50
2022-10-16T08:37:28.997Z,9.10
2022-10-16T08:38:28.989Z,12.40
2022-10-16T08:39:28.979Z,11.50
2022-10-16T08:40:28.971Z,9.90
2022-10-16T08:41:28.949Z,8.30
2022-10-16T08:42:29.247Z,13.60
2022-10-16T08:43:28.931Z,9.60
2022-10-16T08:44:28.927Z,8.40
2022-10-16T08:45:28.905Z,7.50
2022-10-16T08:46:28.901Z,9.10
2022-10-16T08:47:28.906Z,8.90
2022-10-16T08:48:28.883Z,8.40
2022-10-16T08:49:28.903Z,9.50
2022-10-16T08:50:28.862Z,7.20
2022-10-16T08:51:28.853Z,7.30
2022-10-16T08:52:29.009Z,10.50
2022-10-16T08:53:28.842Z,9.80
2022-10-16T08:54:28.817Z,10.10
2022-10-16T08:55:28.805Z,7.60
2022-10-16T08:56:28.790Z,8.30
2022-10-16T08:57:28.779Z,7.70
2022-10-16T08:58:28.770Z,10.10
2022-10-16T08:59:28.758Z,9.60
2022-10-16T09:00:28.843Z,9.50
2022-10-16T09:01:28.782Z,9.60
2022-10-16T09:02:29.063Z,7.20
2022-10-16T09:03:28.735Z,6.80
2022-10-16T09:04:28.700Z,8.10
2022-10-16T09:05:28.689Z,8.60
2022-10-16T09:06:28.682Z,9.20
2022-10-16T09:07:28.669Z,7.30
2022-10-16T09:08:28.661Z,6.00
2022-10-16T09:09:28.651Z,12.00
2022-10-16T09:10:28.655Z,6.90
2022-10-16T09:11:28.652Z,6.50
2022-10-16T09:12:28.832Z,7.60
2022-10-16T09:13:28.606Z,8.70
2022-10-16T09:14:28.597Z,8.70
2022-10-16T09:15:28.581Z,9.00
2022-10-16T09:16:28.572Z,8.30
2022-10-16T09:17:28.945Z,8.10
2022-10-16T09:18:31.695Z,6.60
2022-10-16T09:19:28.561Z,8.00
2022-10-16T09:20:28.531Z,8.30
2022-10-16T09:21:28.523Z,8.00
2022-10-16T09:22:28.507Z,7.80
2022-10-16T09:23:28.499Z,15.50
2022-10-16T09:24:29.371Z,9.30
2022-10-16T09:25:28.471Z,8.90
2022-10-16T09:26:28.464Z,9.70
2022-10-16T09:27:28.797Z,10.80
2022-10-16T09:28:28.466Z,10.70
2022-10-16T09:29:28.427Z,9.10
2022-10-16T09:30:28.414Z,7.90
2022-10-16T09:31:28.407Z,6.30
2022-10-16T09:32:28.393Z,9.30
2022-10-16T09:33:28.386Z,9.60
2022-10-16T09:34:28.374Z,8.30
2022-10-16T09:35:28.503Z,7.10
2022-10-16T09:36:28.350Z,9.40
2022-10-16T09:37:28.915Z,5.70
2022-10-16T09:38:28.328Z,7.70
2022-10-16T09:39:28.322Z,8.90
2022-10-16T09:40:28.306Z,8.50
2022-10-16T09:41:28.329Z,7.30
2022-10-16T09:42:28.382Z,10.30
2022-10-16T09:43:28.275Z,9.30
2022-10-16T09:44:28.328Z,8.30
2022-10-16T09:45:28.253Z,6.20
2022-10-16T09:46:28.247Z,7.10
2022-10-16T09:47:28.534Z,6.60
2022-10-16T09:48:28.220Z,7.60
2022-10-16T09:49:28.209Z,6.00
2022-10-16T09:50:28.197Z,8.80
2022-10-16T09:51:28.204Z,11.30
2022-10-16T09:52:28.174Z,10.60
2022-10-16T09:53:28.162Z,8.40
2022-10-16T09:54:28.148Z,9.70
2022-10-16T09:55:28.164Z,6.50
2022-10-16T09:56:28.128Z,8.30
2022-10-16T09:57:28.752Z,7.70
2022-10-16T09:58:28.123Z,7.90
2022-10-16T09:59:28.102Z,6.50
2022-10-16T10:00:28.085Z,8.50
2022-10-16T10:01:28.079Z,6.80
2022-10-16T10:02:28.062Z,8.60
2022-10-16T10:03:28.055Z,7.60
2022-10-16T10:04:28.043Z,7.10
2022-10-16T10:05:28.033Z,6.70
2022-10-16T10:06:28.021Z,5.10
2022-10-16T10:07:28.614Z,7.40
2022-10-16T10:08:27.999Z,7.60
2022-10-16T10:09:27.993Z,8.70
2022-10-16T10:10:27.980Z,9.30
2022-10-16T10:11:27.971Z,7.40
2022-10-16T10:12:28.428Z,6.90
2022-10-16T10:13:28.040Z,8.10
2022-10-16T10:14:27.936Z,8.70
2022-10-16T10:15:27.922Z,8.50
2022-10-16T10:16:27.912Z,10.10
2022-10-16T10:17:27.906Z,9.70
2022-10-16T10:18:27.892Z,12.40
2022-10-16T10:19:29.279Z,8.30
2022-10-16T10:20:27.872Z,8.30
2022-10-16T10:21:27.861Z,7.20
2022-10-16T10:22:28.232Z,9.50
2022-10-16T10:23:27.873Z,8.60
2022-10-16T10:24:27.826Z,6.40
2022-10-16T10:25:27.815Z,9.20
2022-10-16T10:26:27.805Z,9.10
2022-10-16T10:27:27.858Z,7.20
2022-10-16T10:28:27.947Z,8.60
2022-10-16T10:29:27.772Z,5.60
2022-10-16T10:30:27.763Z,10.40
2022-10-16T10:31:27.752Z,6.80
2022-10-16T10:32:28.149Z,5.40
2022-10-16T10:33:27.730Z,8.50
2022-10-16T10:34:27.720Z,6.70
2022-10-16T10:35:27.713Z,11.20
2022-10-16T10:36:27.696Z,8.40
2022-10-16T10:37:27.689Z,11.00
2022-10-16T10:38:27.676Z,6.90
2022-10-16T10:39:27.695Z,5.70
2022-10-16T10:40:27.661Z,7.50
2022-10-16T10:41:30.542Z,5.70
2022-10-16T10:42:28.144Z,6.60
2022-10-16T10:43:27.728Z,6.60
2022-10-16T10:44:27.610Z,6.70
2022-10-16T10:45:27.600Z,8.80
2022-10-16T10:46:27.590Z,7.50
2022-10-16T10:47:27.582Z,6.90
2022-10-16T10:49:27.560Z,4.80
2022-10-16T10:50:27.547Z,6.70
2022-10-16T10:51:27.536Z,6.40
2022-10-16T10:52:27.916Z,8.00
2022-10-16T10:53:27.517Z,5.40
2022-10-16T10:54:27.503Z,6.10
2022-10-16T10:55:27.516Z,6.10
2022-10-16T10:56:27.498Z,4.00
2022-10-16T10:57:27.590Z,5.80
2022-10-16T10:58:29.971Z,7.40
2022-10-16T10:59:27.472Z,5.90
2022-10-16T11:00:27.443Z,8.20
2022-10-16T11:01:27.469Z,7.50
2022-10-16T11:02:27.758Z,5.30
2022-10-16T11:03:27.407Z,7.20
2022-10-16T11:04:27.394Z,8.90
2022-10-16T11:05:27.386Z,4.50
2022-10-16T11:06:27.374Z,4.80
2022-10-16T11:07:27.601Z,8.30
2022-10-16T11:08:27.357Z,7.70
2022-10-16T11:09:27.343Z,6.40
2022-10-16T11:10:27.331Z,6.80
2022-10-16T11:11:28.039Z,6.50
2022-10-16T11:12:27.305Z,6.20
2022-10-16T11:13:27.293Z,6.90
2022-10-16T11:14:27.290Z,8.10
2022-10-16T11:15:27.969Z,7.40
2022-10-16T11:16:27.556Z,8.00
2022-10-16T11:17:29.582Z,6.80
2022-10-16T11:18:27.242Z,6.70
2022-10-16T11:19:27.228Z,7.10
2022-10-16T11:20:27.220Z,7.00
2022-10-16T11:21:30.345Z,5.40
2022-10-16T11:22:27.200Z,7.50
2022-10-16T11:23:27.186Z,5.00
2022-10-16T11:24:27.175Z,5.10
2022-10-16T11:25:27.172Z,5.70
2022-10-16T11:26:27.156Z,7.80
2022-10-16T11:27:27.462Z,7.40
2022-10-16T11:28:30.901Z,8.30
2022-10-16T11:29:27.125Z,7.20
2022-10-16T11:30:27.114Z,7.30
2022-10-16T11:31:27.110Z,9.20
2022-10-16T11:32:27.096Z,9.90
2022-10-16T11:33:27.084Z,8.40
2022-10-16T11:34:27.071Z,6.80
2022-10-16T11:35:27.060Z,7.80
2022-10-16T11:36:27.049Z,7.90
2022-10-16T11:37:27.271Z,7.00
2022-10-16T11:38:27.109Z,8.90
2022-10-16T11:39:27.043Z,5.00
2022-10-16T11:40:27.008Z,6.70
2022-10-16T11:41:26.999Z,4.70
2022-10-16T11:42:26.990Z,8.50
2022-10-16T11:43:27.003Z,7.10
2022-10-16T11:44:26.964Z,6.00
2022-10-16T11:45:26.954Z,7.70
2022-10-16T11:46:26.942Z,7.20
2022-10-16T11:47:57.553Z,8.00
2022-10-16T11:48:27.958Z,9.30
2022-10-16T11:49:26.907Z,6.10
2022-10-16T11:50:26.901Z,8.60
2022-10-16T11:51:26.888Z,6.70
2022-10-16T11:52:26.880Z,7.40
2022-10-16T11:53:26.867Z,9.60
2022-10-16T11:54:26.857Z,9.10
2022-10-16T11:55:26.867Z,6.50
2022-10-16T11:56:26.849Z,7.10
2022-10-16T11:57:27.390Z,9.00
2022-10-16T11:58:26.812Z,7.50
2022-10-16T11:59:26.824Z,11.10
2022-10-16T12:00:26.795Z,9.30
2022-10-16T12:01:26.793Z,9.30
2022-10-16T12:02:27.013Z,7.60
2022-10-16T12:03:26.811Z,8.60
2022-10-16T12:04:26.754Z,5.90
2022-10-16T12:05:26.738Z,11.30
2022-10-16T12:06:26.734Z,13.20
2022-10-16T12:07:26.718Z,10.90
2022-10-16T12:08:26.708Z,6.40
2022-10-16T12:09:26.709Z,8.20
2022-10-16T12:10:27.818Z,8.40
2022-10-16T12:11:26.693Z,5.60
2022-10-16T12:12:29.095Z,7.70
2022-10-16T12:13:26.653Z,7.70
2022-10-16T12:14:26.669Z,6.90
2022-10-16T12:15:47.063Z,9.00
2022-10-16T12:16:27.669Z,8.00
2022-10-16T12:17:26.614Z,7.20
2022-10-16T12:18:26.633Z,7.30
2022-10-16T12:19:26.585Z,9.90
2022-10-16T12:20:26.579Z,9.00
2022-10-16T12:21:26.569Z,6.40
2022-10-16T12:22:26.902Z,9.10
2022-10-16T12:23:26.547Z,8.60
2022-10-16T12:24:27.072Z,8.80
2022-10-16T12:25:26.540Z,10.40
2022-10-16T12:26:26.548Z,6.00
2022-10-16T12:27:26.698Z,9.20
2022-10-16T12:28:26.691Z,9.20
2022-10-16T12:29:26.595Z,7.80
2022-10-16T12:30:26.590Z,8.10
2022-10-16T12:31:26.631Z,5.20
2022-10-16T12:32:45.579Z,9.50
2022-10-16T12:33:27.456Z,9.60
2022-10-16T12:34:26.417Z,8.40
2022-10-16T12:35:26.404Z,7.00
2022-10-16T12:36:26.416Z,6.90
2022-10-16T12:37:26.385Z,8.30
2022-10-16T12:38:26.378Z,6.60
2022-10-16T12:39:26.359Z,9.50
2022-10-16T12:40:26.354Z,7.70
2022-10-16T12:41:26.344Z,8.00
2022-10-16T12:42:26.692Z,12.70
2022-10-16T12:43:28.984Z,8.90
2022-10-16T12:44:26.613Z,9.00
2022-10-16T12:45:26.300Z,7.50
2022-10-16T12:46:26.287Z,7.60
2022-10-16T12:47:26.295Z,8.40
2022-10-16T12:48:32.558Z,8.20
2022-10-16T12:49:27.278Z,8.70
2022-10-16T12:50:26.240Z,8.10
2022-10-16T12:51:26.249Z,7.40
2022-10-16T12:52:26.477Z,6.80
2022-10-16T12:53:26.224Z,11.80
2022-10-16T12:54:26.195Z,9.30
2022-10-16T12:55:26.183Z,7.20
2022-10-16T12:56:26.175Z,7.40
2022-10-16T12:57:26.365Z,7.60
2022-10-16T12:58:26.149Z,9.60
2022-10-16T12:59:26.139Z,9.60
2022-10-16T13:00:26.167Z,6.90
2022-10-16T13:01:26.120Z,6.60
2022-10-16T13:02:26.107Z,7.20
2022-10-16T13:03:26.124Z,7.00
2022-10-16T13:04:26.083Z,8.40
2022-10-16T13:05:26.144Z,7.80
2022-10-16T13:06:26.064Z,8.10